Time;durP1;ratioP1;P1;durP2;ratioP2;P2;SDS_P1;SDS_P2;PMS_P1;PMS_P2;Temp;Humidity;BMP_temperature;BMP_pressure;BME280_temperature;BME280_humidity;BME280_pressure;Samples;Min_cycle;Max_cycle;Signal;HPM_P1;HPM_P2
2022/01/03 00:01:39;;;;;;;9.80;1.60;;;;;;;21.43;57.71;98752.38;7315260;19;129458;-38
2022/01/03 00:04:06;;;;;;;32.63;5.65;;;;;;;21.51;57.79;98771.53;7314125;19;130296;-37
2022/01/03 00:06:32;;;;;;;13.02;2.00;;;;;;;21.37;57.49;98745.97;7309643;19;129703;-36
2022/01/03 00:08:58;;;;;;;12.40;2.20;;;;;;;21.44;57.93;98754.00;7314714;19;130017;-38
2022/01/03 00:11:23;;;;;;;14.00;2.57;;;;;;;21.55;57.63;98757.13;7313593;19;129207;-35
2022/01/03 00:13:50;;;;;;;22.80;3.47;;;;;;;21.54;57.91;98750.28;7314499;19;129286;-34
2022/01/03 00:16:16;;;;;;;21.50;3.05;;;;;;;21.51;57.96;98755.00;7315305;19;129803;-40
2022/01/03 00:18:42;;;;;;;17.27;2.73;;;;;;;21.49;57.55;98757.78;7305351;19;130263;-34
2022/01/03 00:21:15;;;;;;;19.90;2.80;;;;;;;21.45;58.05;98766.13;7314628;19;131528;-36
2022/01/03 00:23:48;;;;;;;9.80;2.17;;;;;;;21.49;58.44;98763.03;7313819;19;130177;-34
2022/01/03 00:26:18;;;;;;;22.75;3.60;;;;;;;21.44;58.22;98752.22;7315163;19;130255;-37
2022/01/03 00:28:58;;;;;;;17.98;3.03;;;;;;;21.43;59.26;98749.75;7313379;19;128998;-37
2022/01/03 00:31:31;;;;;;;12.48;1.95;;;;;;;21.41;58.45;98744.69;7315907;19;128988;-36
2022/01/03 00:33:57;;;;;;;35.72;6.18;;;;;;;21.46;58.00;98737.19;7314024;19;129232;-39
2022/01/03 00:36:27;;;;;;;14.10;2.15;;;;;;;21.49;57.97;98747.31;7314475;19;130317;-36
2022/01/03 00:38:54;;;;;;;19.30;3.22;;;;;;;21.48;57.67;98730.00;7311262;19;130085;-36
2022/01/03 00:41:21;;;;;;;26.65;3.67;;;;;;;21.47;58.40;98717.91;7313021;19;129168;-40
2022/01/03 00:43:47;;;;;;;;;;;;;;;21.43;58.80;98721.81;7314386;19;132884;-37
2022/01/03 00:46:14;;;;;;;15.88;2.50;;;;;;;21.46;57.82;98711.03;7312829;19;129730;-36
2022/01/03 00:48:39;;;;;;;13.32;2.20;;;;;;;21.45;57.94;98696.31;7313712;19;129172;-33
2022/01/03 00:51:04;;;;;;;19.48;2.85;;;;;;;21.45;57.61;98692.91;7312427;19;142203;-38
2022/01/03 00:53:30;;;;;;;16.80;3.13;;;;;;;21.46;57.58;98684.88;7311492;19;130081;-34
2022/01/03 00:56:00;;;;;;;13.48;2.15;;;;;;;21.46;58.16;98697.97;7310928;19;159054;-35
2022/01/03 00:58:31;;;;;;;10.57;1.55;;;;;;;21.54;58.28;98691.91;7311932;19;129670;-33
2022/01/03 01:00:58;;;;;;;9.02;1.60;;;;;;;21.50;57.88;98690.63;7312646;19;129314;-32
2022/01/03 01:03:32;;;;;;;14.60;2.05;;;;;;;21.48;58.28;98697.81;7314047;19;129192;-32
2022/01/03 01:06:01;;;;;;;11.57;2.15;;;;;;;21.47;57.43;98691.75;7311295;19;129184;-32
2022/01/03 01:08:28;;;;;;;13.10;1.85;;;;;;;21.51;57.54;98680.00;7312630;19;129524;-35
2022/01/03 01:10:58;;;;;;;19.77;2.97;;;;;;;21.51;58.17;98693.06;7311074;19;130028;-36
2022/01/03 01:13:24;;;;;;;17.15;2.63;;;;;;;21.47;58.02;98686.50;7313282;19;129271;-34
2022/01/03 01:15:49;;;;;;;20.08;3.45;;;;;;;21.56;57.57;98693.41;7312343;19;130915;-34
2022/01/03 01:18:15;;;;;;;40.13;6.57;;;;;;;21.54;57.78;98697.97;7309064;19;129072;-34
2022/01/03 01:20:41;;;;;;;18.40;3.05;;;;;;;21.50;57.88;98699.25;7308891;19;128814;-34
2022/01/03 01:23:08;;;;;;;22.45;3.00;;;;;;;21.55;58.01;98694.38;7312256;19;129155;-35
2022/01/03 01:28:07;;;;;;;18.58;3.03;;;;;;;21.56;57.91;98716.13;7312278;19;129862;-33
2022/01/03 01:30:33;;;;;;;9.68;1.55;;;;;;;21.54;57.18;98721.50;7308448;19;129161;-37
2022/01/03 01:33:14;;;;;;;15.95;2.70;;;;;;;21.57;57.93;98725.59;7311929;19;130250;-34
2022/01/03 01:35:50;;;;;;;14.88;2.35;;;;;;;21.46;57.54;98746.81;7311293;19;129708;-39
2022/01/03 01:38:18;;;;;;;32.08;4.97;;;;;;;21.47;57.46;98769.41;7310031;19;129615;-35
2022/01/03 01:40:49;;;;;;;13.88;2.38;;;;;;;21.42;58.36;98767.25;7309531;19;128863;-33
2022/01/03 01:43:18;;;;;;;25.33;4.28;;;;;;;21.48;58.39;98750.94;7310673;19;130163;-34
2022/01/03 01:45:48;;;;;;;12.98;2.25;;;;;;;21.53;57.77;98748.66;7308767;19;130296;-34
2022/01/03 01:48:13;;;;;;;21.95;3.60;;;;;;;21.51;58.20;98742.75;7310673;19;129022;-30
2022/01/03 01:50:41;;;;;;;16.55;2.58;;;;;;;21.44;58.17;98739.13;7307482;19;150595;-34
2022/01/03 01:53:08;;;;;;;38.28;6.20;;;;;;;21.52;57.63;98746.19;7306471;19;130611;-35
2022/01/03 01:55:33;;;;;;;13.45;2.05;;;;;;;21.53;57.43;98747.84;7299733;19;130140;-38
2022/01/03 01:58:29;;;;;;;9.55;1.95;;;;;;;21.52;58.62;98747.00;7310148;19;128955;-38
2022/01/03 02:01:04;;;;;;;13.70;2.00;;;;;;;21.54;58.82;98744.22;7311374;19;130328;-30
2022/01/03 02:03:48;;;;;;;17.05;2.65;;;;;;;21.55;57.87;98751.91;7311465;19;130388;-35
2022/01/03 02:06:26;;;;;;;22.77;3.25;;;;;;;21.57;58.55;98752.56;7309390;19;130489;-31
2022/01/03 02:09:19;;;;;;;18.65;2.85;;;;;;;21.59;58.45;98748.00;7310922;19;129369;-37
2022/01/03 02:11:53;;;;;;;18.55;2.95;;;;;;;21.57;58.02;98738.66;7310711;19;129131;-38
2022/01/03 02:14:21;;;;;;;20.73;3.08;;;;;;;21.55;57.60;98736.22;7308776;19;131613;-34
2022/01/03 02:16:47;;;;;;;8.77;1.85;;;;;;;21.55;57.54;98730.19;7311331;19;130373;-35
2022/01/03 02:19:13;;;;;;;19.15;2.67;;;;;;;21.51;57.65;98740.16;7307474;19;129711;-31
2022/01/03 02:21:39;;;;;;;6.80;1.58;;;;;;;21.47;57.77;98728.34;7310924;19;143950;-34
2022/01/03 02:24:05;;;;;;;22.17;3.63;;;;;;;21.42;57.33;98714.94;7309750;19;129286;-37
2022/01/03 02:26:31;;;;;;;8.32;1.58;;;;;;;21.25;57.84;98696.78;7311575;19;130375;-37
2022/01/03 02:28:57;;;;;;;21.93;3.20;;;;;;;21.37;58.24;98709.38;7307427;19;129176;-39
2022/01/03 02:31:23;;;;;;;18.42;2.63;;;;;;;21.43;58.16;98708.75;7310887;19;129243;-34
2022/01/03 02:33:49;;;;;;;24.27;4.30;;;;;;;21.34;57.99;98701.03;7309213;19;130526;-34
2022/01/03 02:36:16;;;;;;;10.80;1.80;;;;;;;21.39;58.02;98719.66;7310085;19;129452;-33
2022/01/03 02:38:42;;;;;;;;;;;;;;;21.47;58.70;98722.31;7307711;19;129052;-39
2022/01/03 02:41:07;;;;;;;23.52;3.30;;;;;;;21.56;57.22;98735.25;7310907;19;128810;-31
2022/01/03 02:43:32;;;;;;;25.17;4.32;;;;;;;21.51;57.88;98734.91;7307071;19;158758;-36
2022/01/03 02:45:58;;;;;;;14.65;2.10;;;;;;;21.50;57.37;98735.88;7309394;19;159850;-37
2022/01/03 02:48:23;;;;;;;6.82;1.15;;;;;;;21.47;57.89;98732.78;7307383;19;154887;-37
2022/01/03 02:50:49;;;;;;;15.88;2.47;;;;;;;21.42;57.95;98735.84;7307068;19;154918;-34
2022/01/03 02:53:15;;;;;;;34.20;4.80;;;;;;;21.42;58.23;98737.69;7309114;19;128996;-38
2022/01/03 02:55:40;;;;;;;16.17;2.53;;;;;;;21.42;58.46;98743.69;7309023;19;129281;-36
2022/01/03 02:58:07;;;;;;;31.40;4.20;;;;;;;21.35;58.29;98732.25;7307263;19;129476;-36
2022/01/03 03:00:37;;;;;;;14.07;2.20;;;;;;;21.41;58.35;98734.22;7312209;19;129366;-32
2022/01/03 03:03:03;;;;;;;9.90;1.30;;;;;;;21.40;57.72;98737.81;7318906;19;130250;-34
2022/01/03 03:05:29;;;;;;;17.13;2.15;;;;;;;21.31;57.76;98723.09;7314267;19;129470;-37
2022/01/03 03:07:54;;;;;;;17.80;3.17;;;;;;;21.40;57.58;98737.81;7315585;19;129573;-36
2022/01/03 03:10:22;;;;;;;32.78;4.75;;;;;;;21.44;57.98;98743.53;7313151;19;143840;-35
2022/01/03 03:12:47;;;;;;;18.10;3.20;;;;;;;21.35;58.10;98729.66;7314646;19;130089;-36
2022/01/03 03:15:14;;;;;;;16.65;2.55;;;;;;;21.42;57.98;98746.31;7316105;19;129208;-34
2022/01/03 03:17:40;;;;;;;21.50;3.30;;;;;;;21.43;57.98;98732.28;7314911;19;129814;-41
2022/01/03 03:20:11;;;;;;;25.73;4.00;;;;;;;21.46;58.41;98731.97;7310176;19;129300;-30
2022/01/03 03:22:37;;;;;;;20.90;2.70;;;;;;;21.36;57.95;98710.34;7317075;19;129621;-33
2022/01/03 03:25:11;;;;;;;8.30;1.37;;;;;;;21.31;58.67;98696.94;7314525;19;130387;-33
2022/01/03 03:27:43;;;;;;;20.70;3.08;;;;;;;21.43;57.84;98724.44;7314994;19;129700;-34
2022/01/03 03:30:39;;;;;;;19.08;2.67;;;;;;;21.39;58.32;98715.25;7312397;19;128910;-33
2022/01/03 03:33:11;;;;;;;11.02;1.63;;;;;;;21.30;58.40;98700.56;7316358;19;130361;-36
2022/01/03 03:35:37;;;;;;;23.15;3.15;;;;;;;21.37;58.42;98717.22;7313379;19;130714;-32
2022/01/03 03:38:03;;;;;;;11.98;2.13;;;;;;;21.31;58.68;98717.88;7314278;19;129786;-30
2022/01/03 03:40:28;;;;;;;12.47;1.80;;;;;;;21.36;57.93;98707.75;7314088;19;129868;-35
2022/01/03 03:42:53;;;;;;;15.70;2.83;;;;;;;21.39;58.34;98698.75;7311917;19;155447;-34
2022/01/03 03:45:19;;;;;;;20.63;2.83;;;;;;;21.28;58.09;98692.03;7316134;19;130748;-33
2022/01/03 03:47:44;;;;;;;32.63;4.55;;;;;;;21.37;58.41;98711.19;7313456;19;129643;-42
2022/01/03 03:50:10;;;;;;;15.68;2.28;;;;;;;21.39;57.87;98715.25;7313362;19;129612;-39
2022/01/03 03:52:35;;;;;;;12.88;2.03;;;;;;;21.44;58.08;98718.22;7313812;19;129721;-33
2022/01/03 03:55:01;;;;;;;29.73;4.80;;;;;;;21.28;58.49;98699.06;7305121;19;130334;-34
2022/01/03 03:57:26;;;;;;;15.40;2.28;;;;;;;21.25;58.25;98710.66;7307755;19;131443;-34
2022/01/03 03:59:52;;;;;;;23.92;3.13;;;;;;;21.22;58.04;98724.03;7312580;19;130024;-33
2022/01/03 04:02:17;;;;;;;25.50;3.50;;;;;;;21.30;58.08;98726.69;7313403;19;129425;-33
2022/01/03 04:04:42;;;;;;;19.63;3.10;;;;;;;21.42;57.01;98728.00;7312625;19;158609;-38
2022/01/03 04:07:08;;;;;;;23.93;3.60;;;;;;;21.55;57.08;98720.53;7311808;19;154646;-33
2022/01/03 04:09:33;;;;;;;15.05;2.08;;;;;;;21.52;56.57;98713.00;7311696;19;129544;-40
2022/01/03 04:11:59;;;;;;;18.95;2.35;;;;;;;21.71;56.15;98725.81;7313357;19;129339;-34
2022/01/03 04:14:24;;;;;;;10.00;1.48;;;;;;;21.83;55.73;98729.75;7313517;19;129226;-34
2022/01/03 04:16:49;;;;;;;13.07;2.17;;;;;;;21.82;56.11;98717.66;7314076;19;153786;-38
2022/01/03 04:19:15;;;;;;;16.88;2.63;;;;;;;21.96;56.13;98724.84;7310143;19;129243;-36
2022/01/03 04:21:40;;;;;;;18.55;3.15;;;;;;;22.03;56.03;98722.44;7312450;19;135502;-37
2022/01/03 04:24:08;;;;;;;27.30;3.60;;;;;;;22.08;55.92;98735.03;7313776;19;130331;-37
2022/01/03 04:26:34;;;;;;;20.90;3.40;;;;;;;22.11;55.84;98735.53;7314410;19;129659;-36
2022/01/03 04:28:59;;;;;;;11.77;1.50;;;;;;;22.18;55.55;98744.34;7313672;19;129209;-37
2022/01/03 04:31:25;;;;;;;10.50;1.70;;;;;;;22.19;55.11;98735.50;7310448;19;132504;-39
2022/01/03 04:33:50;;;;;;;19.30;3.10;;;;;;;22.17;55.41;98727.00;7312352;19;130210;-39
2022/01/03 04:36:15;;;;;;;22.48;3.33;;;;;;;22.17;55.17;98729.63;7313449;19;129030;-38
2022/01/03 04:38:41;;;;;;;22.65;3.28;;;;;;;22.13;55.10;98735.34;7309465;19;152821;-37
2022/01/03 04:41:06;;;;;;;18.65;2.70;;;;;;;22.11;55.34;98753.03;7313315;19;141462;-40
2022/01/03 04:43:33;;;;;;;15.95;2.13;;;;;;;22.07;55.40;98743.84;7312340;19;129230;-36
2022/01/03 04:45:59;;;;;;;11.02;1.58;;;;;;;22.03;56.00;98745.16;7314774;19;129042;-37
2022/01/03 04:48:24;;;;;;;14.55;1.90;;;;;;;21.97;55.99;98751.84;7312435;19;128894;-39
2022/01/03 04:50:50;;;;;;;18.75;3.08;;;;;;;21.92;55.86;98743.66;7312789;19;129949;-37
2022/01/03 04:53:16;;;;;;;19.10;2.67;;;;;;;21.89;56.98;98734.38;7312582;19;129683;-38
2022/01/03 04:55:41;;;;;;;24.58;3.78;;;;;;;21.84;56.25;98739.25;7311042;19;129071;-39
2022/01/03 04:58:08;;;;;;;14.98;2.22;;;;;;;21.80;56.63;98732.69;7308292;19;140025;-36
2022/01/03 05:00:34;;;;;;;10.75;1.58;;;;;;;21.80;56.75;98734.50;7309512;19;130140;-38
2022/01/03 05:02:59;;;;;;;11.77;1.75;;;;;;;21.73;56.57;98742.13;7312610;19;129610;-36
2022/01/03 05:05:24;;;;;;;26.80;3.70;;;;;;;21.77;56.96;98738.25;7310167;19;143966;-39
2022/01/03 05:07:49;;;;;;;28.90;5.00;;;;;;;21.73;56.64;98744.75;7310155;19;154286;-38
2022/01/03 05:10:15;;;;;;;14.60;2.35;;;;;;;21.69;57.14;98748.69;7309546;19;159259;-38
2022/01/03 05:12:40;;;;;;;22.50;3.40;;;;;;;21.68;57.18;98751.47;7310329;19;158521;-38
2022/01/03 05:15:06;;;;;;;15.30;2.42;;;;;;;21.64;56.76;98760.59;7311339;19;129894;-37
2022/01/03 05:17:31;;;;;;;17.77;2.60;;;;;;;21.63;57.34;98754.56;7312423;19;129424;-39
2022/01/03 05:19:57;;;;;;;13.07;2.30;;;;;;;21.59;56.74;98753.25;7307325;19;130229;-38
2022/01/03 05:22:22;;;;;;;11.55;1.75;;;;;;;21.59;56.92;98753.25;7308606;19;129581;-36
2022/01/03 05:24:47;;;;;;;12.95;2.15;;;;;;;21.53;57.44;98761.75;7310805;19;144059;-39
2022/01/03 05:27:13;;;;;;;17.08;2.40;;;;;;;21.55;57.27;98772.03;7309049;19;156416;-39
2022/01/03 05:29:38;;;;;;;21.83;2.85;;;;;;;21.44;57.19;98765.28;7308308;19;157367;-38
2022/01/03 05:32:04;;;;;;;8.05;1.17;;;;;;;21.51;57.19;98775.94;7309734;19;148309;-38
2022/01/03 05:34:29;;;;;;;14.10;2.33;;;;;;;21.43;57.29;98758.44;7311440;19;129957;-38
2022/01/03 05:36:54;;;;;;;12.93;1.67;;;;;;;21.50;57.51;98774.31;7311408;19;154373;-38
2022/01/03 05:39:20;;;;;;;11.75;1.80;;;;;;;21.50;57.82;98769.88;7306990;19;159187;-39
2022/01/03 05:41:45;;;;;;;23.15;3.35;;;;;;;21.51;57.78;98781.16;7311148;19;158465;-38
2022/01/03 05:44:11;;;;;;;18.15;2.55;;;;;;;21.39;57.22;98764.13;7308608;19;157239;-40
2022/01/03 05:46:36;;;;;;;10.52;1.58;;;;;;;21.41;57.77;98786.53;7310372;19;154008;-39
2022/01/03 05:49:02;;;;;;;20.75;3.03;;;;;;;21.31;57.65;98783.22;7309200;19;158637;-39
2022/01/03 05:51:27;;;;;;;11.25;1.58;;;;;;;21.38;58.11;98802.53;7311426;19;129283;-38
2022/01/03 05:53:55;;;;;;;31.20;4.67;;;;;;;21.31;57.76;98811.97;7309523;19;155206;-38
2022/01/03 05:56:20;;;;;;;33.03;4.97;;;;;;;21.33;58.21;98803.97;7295639;19;129406;-36
2022/01/03 05:58:46;;;;;;;17.75;2.75;;;;;;;21.32;58.19;98813.59;7309735;19;129849;-37
2022/01/03 06:01:12;;;;;;;18.33;2.70;;;;;;;21.33;57.98;98820.50;7310464;19;130014;-36
2022/01/03 06:03:39;;;;;;;18.73;2.83;;;;;;;21.33;57.42;98812.66;7310130;19;130294;-39
2022/01/03 06:08:34;;;;;;;13.07;1.67;;;;;;;21.32;58.38;98807.59;7310748;19;129464;-37
2022/01/03 06:11:00;;;;;;;13.35;1.77;;;;;;;21.27;57.93;98789.72;7311533;19;129600;-39
2022/01/03 06:13:25;;;;;;;18.05;2.40;;;;;;;21.38;57.99;98813.00;7309550;19;155711;-36
2022/01/03 06:15:50;;;;;;;19.58;2.58;;;;;;;21.40;58.36;98820.69;7308249;19;154068;-37
2022/01/03 06:18:18;;;;;;;24.80;3.90;;;;;;;21.41;58.60;98828.38;7307823;19;145910;-40
2022/01/03 06:20:45;;;;;;;12.25;1.98;;;;;;;21.43;58.27;98815.97;7307184;19;129788;-38
2022/01/03 06:23:11;;;;;;;;;;;;;;;21.46;59.42;98820.88;7311761;19;129011;-38
2022/01/03 06:25:37;;;;;;;16.58;2.25;;;;;;;21.46;58.38;98830.50;7310865;19;129018;-40
2022/01/03 06:28:07;;;;;;;13.35;1.98;;;;;;;21.46;57.94;98825.28;7309760;19;129305;-36
2022/01/03 06:30:36;;;;;;;15.43;1.95;;;;;;;21.57;57.83;98833.66;7308203;19;131541;-39
2022/01/03 06:33:02;;;;;;;14.15;2.05;;;;;;;21.54;58.12;98833.97;7307713;19;129082;-39
2022/01/03 06:35:28;;;;;;;22.10;2.53;;;;;;;21.52;57.95;98833.31;7308909;19;129709;-37
2022/01/03 06:37:53;;;;;;;13.82;2.10;;;;;;;21.56;57.92;98834.66;7309102;19;131398;-37
2022/01/03 06:40:19;;;;;;;21.80;2.92;;;;;;;21.53;57.99;98832.34;7305929;19;158286;-38
2022/01/03 06:42:44;;;;;;;19.08;2.63;;;;;;;21.50;57.70;98835.25;7309530;19;129125;-40
2022/01/03 06:45:09;;;;;;;20.85;3.05;;;;;;;21.63;57.48;98848.75;7308242;19;129029;-39
2022/01/03 06:47:35;;;;;;;28.70;4.32;;;;;;;21.54;57.92;98844.44;7309166;19;129195;-39
2022/01/03 06:50:01;;;;;;;12.80;1.65;;;;;;;21.47;57.71;98850.47;7306146;19;159235;-38
2022/01/03 06:52:26;;;;;;;15.50;1.88;;;;;;;21.47;58.22;98843.41;7309629;19;128908;-40
2022/01/03 06:54:51;;;;;;;19.30;2.88;;;;;;;21.48;58.00;98852.94;7307399;19;154249;-35
2022/01/03 06:57:16;;;;;;;19.75;2.55;;;;;;;21.35;57.61;98855.16;7309783;19;129503;-37
2022/01/03 06:59:42;;;;;;;19.45;2.53;;;;;;;21.32;58.41;98855.44;7306142;19;132954;-35
2022/01/03 07:02:07;;;;;;;19.48;2.83;;;;;;;21.31;58.06;98864.28;7309318;19;142842;-41
2022/01/03 07:04:33;;;;;;;34.58;5.13;;;;;;;21.29;58.07;98853.13;7308212;19;129423;-39
2022/01/03 07:06:58;;;;;;;9.27;1.50;;;;;;;21.27;58.18;98873.38;7307840;19;158614;-39
2022/01/03 07:09:23;;;;;;;11.18;1.50;;;;;;;21.33;57.54;98859.72;7307037;19;129593;-38
2022/01/03 07:11:49;;;;;;;20.33;2.83;;;;;;;21.30;58.26;98867.88;7308245;19;154641;-40
2022/01/03 07:19:33;;;;;;;16.95;2.30;;;;;;;21.31;57.99;98879.97;7304595;19;130662;-38
2022/01/03 07:22:00;;;;;;;16.67;2.05;;;;;;;21.34;58.40;98881.44;7308910;19;129112;-36
2022/01/03 07:24:26;;;;;;;13.27;1.75;;;;;;;21.36;58.09;98876.88;7308092;19;129041;-35
2022/01/03 07:26:51;;;;;;;15.98;2.30;;;;;;;21.28;57.94;98874.22;7308460;19;130084;-39
2022/01/03 07:29:16;;;;;;;22.45;3.13;;;;;;;21.34;57.85;98895.34;7302222;19;158950;-37
2022/01/03 07:31:41;;;;;;;18.48;2.72;;;;;;;21.34;58.09;98900.56;7308939;19;154137;-36
2022/01/03 07:34:07;;;;;;;12.93;1.85;;;;;;;21.34;57.98;98900.56;7308981;19;130725;-39
2022/01/03 07:36:32;;;;;;;10.93;1.70;;;;;;;21.34;57.64;98910.19;7308282;19;130181;-37
2022/01/03 07:38:57;;;;;;;21.43;2.70;;;;;;;21.37;57.36;98900.25;7305746;19;158488;-36
2022/01/03 07:41:22;;;;;;;17.67;2.27;;;;;;;21.38;57.73;98891.44;7307360;19;154355;-36
2022/01/03 07:43:48;;;;;;;18.55;3.00;;;;;;;21.37;57.29;98889.78;7308389;19;129552;-38
2022/01/03 07:46:13;;;;;;;18.13;2.60;;;;;;;21.35;57.76;98897.00;7313129;19;158227;-36
2022/01/03 07:48:39;;;;;;;11.80;1.75;;;;;;;21.32;57.44;98883.41;7313458;19;158790;-36
2022/01/03 07:51:04;;;;;;;16.25;2.15;;;;;;;21.41;57.21;98900.75;7315434;19;129406;-37
2022/01/03 07:53:30;;;;;;;16.58;2.45;;;;;;;21.40;57.31;98904.38;7315162;19;128939;-37
2022/01/03 07:55:56;;;;;;;11.85;1.73;;;;;;;21.41;57.55;98906.81;7315397;19;130119;-35
2022/01/03 07:58:22;;;;;;;15.57;2.20;;;;;;;21.39;57.56;98908.75;7313753;19;129944;-37
2022/01/03 08:00:47;;;;;;;16.55;2.55;;;;;;;21.37;57.85;98910.72;7315824;19;128955;-36
2022/01/03 08:03:12;;;;;;;30.55;4.30;;;;;;;21.36;57.41;98913.47;7312222;19;152893;-36
2022/01/03 08:05:38;;;;;;;16.13;2.25;;;;;;;21.39;57.26;98924.44;7315527;19;129966;-39
2022/01/03 08:08:05;;;;;;;13.25;1.88;;;;;;;21.37;57.86;98905.47;7314394;19;129640;-36
2022/01/03 08:10:30;;;;;;;15.43;1.98;;;;;;;21.39;58.25;98913.16;7313183;19;129120;-37
2022/01/03 08:12:56;;;;;;;18.33;2.75;;;;;;;21.37;58.07;98918.53;7314068;19;130785;-37
2022/01/03 08:15:23;;;;;;;12.57;1.67;;;;;;;21.39;57.57;98914.00;7312927;19;158336;-36
2022/01/03 08:17:49;;;;;;;14.10;2.22;;;;;;;21.37;58.52;98926.38;7316412;19;130825;-37
2022/01/03 08:20:14;;;;;;;16.48;2.17;;;;;;;21.36;57.80;98927.38;7312221;19;129901;-38
2022/01/03 08:22:40;;;;;;;10.45;1.88;;;;;;;21.31;57.64;98923.56;7316060;19;128824;-37
2022/01/03 08:25:05;;;;;;;14.75;2.05;;;;;;;21.30;58.21;98928.00;7316113;19;129544;-37
2022/01/03 08:27:31;;;;;;;24.13;3.95;;;;;;;21.14;57.74;98909.56;7312990;19;130206;-38
2022/01/03 08:29:56;;;;;;;8.77;1.20;;;;;;;21.24;58.42;98930.38;7312344;19;130000;-36
2022/01/03 08:32:21;;;;;;;9.93;1.70;;;;;;;21.28;58.13;98927.34;7312229;19;152340;-38
2022/01/03 08:34:47;;;;;;;18.52;2.75;;;;;;;21.27;57.71;98917.03;7311136;19;157242;-38
2022/01/03 08:37:12;;;;;;;16.13;2.53;;;;;;;21.21;58.42;98931.53;7313893;19;130513;-35
2022/01/03 08:39:37;;;;;;;20.27;2.60;;;;;;;21.29;57.68;98923.72;7310042;19;141330;-35
2022/01/03 08:42:03;;;;;;;17.00;2.63;;;;;;;21.37;56.48;98931.63;7313628;19;129834;-40
2022/01/03 08:44:28;;;;;;;13.88;1.90;;;;;;;21.36;57.14;98939.63;7313856;19;131374;-35
2022/01/03 08:46:54;;;;;;;14.47;2.03;;;;;;;21.35;57.28;98949.28;7312544;19;160111;-37
2022/01/03 08:49:19;;;;;;;15.73;2.33;;;;;;;21.32;57.00;98949.56;7311337;19;153094;-38
2022/01/03 08:51:44;;;;;;;19.90;2.63;;;;;;;21.35;57.91;98938.81;7313616;19;129444;-35
2022/01/03 08:54:10;;;;;;;16.17;2.58;;;;;;;21.38;57.85;98951.59;7312223;19;151759;-39
2022/01/03 08:56:37;;;;;;;19.33;2.63;;;;;;;21.32;56.95;98956.59;7311917;19;129930;-33
2022/01/03 08:59:03;;;;;;;13.80;1.92;;;;;;;21.36;57.35;98966.59;7311954;19;129219;-37
2022/01/03 09:01:28;;;;;;;18.20;2.38;;;;;;;21.31;57.46;98952.34;7311163;19;156287;-33
2022/01/03 09:03:53;;;;;;;27.35;4.13;;;;;;;21.33;57.03;98953.00;7312547;19;129267;-37
2022/01/03 09:06:20;;;;;;;21.07;2.70;;;;;;;21.30;56.75;98953.31;7311724;19;157346;-39
2022/01/03 09:08:46;;;;;;;20.53;3.00;;;;;;;21.26;57.01;98960.66;7311278;19;129245;-38
2022/01/03 09:11:11;;;;;;;25.77;3.37;;;;;;;21.25;57.43;98968.66;7313040;19;128919;-36
2022/01/03 09:13:37;;;;;;;15.23;2.22;;;;;;;21.24;57.46;98959.13;7311011;19;131018;-39
2022/01/03 09:16:06;;;;;;;16.00;1.98;;;;;;;21.23;57.10;98960.97;7312872;19;130338;-37
2022/01/03 09:18:32;;;;;;;8.93;1.42;;;;;;;21.16;57.37;98965.16;7312254;19;129073;-39
2022/01/03 09:20:58;;;;;;;16.05;2.20;;;;;;;21.15;57.38;98958.28;7313129;19;129277;-39
2022/01/03 09:23:28;;;;;;;13.05;1.85;;;;;;;21.22;58.07;98968.94;7313120;19;130098;-40
2022/01/03 09:28:49;;;;;;;19.17;2.65;;;;;;;21.17;57.76;98971.19;7312095;19;129418;-39
2022/01/03 09:31:22;;;;;;;21.55;3.10;;;;;;;21.09;58.41;98963.31;7312777;19;128815;-35
2022/01/03 09:33:47;;;;;;;17.08;2.88;;;;;;;21.14;57.73;98977.53;7313222;19;129345;-36
2022/01/03 09:36:13;;;;;;;32.65;4.38;;;;;;;21.20;57.81;98976.13;7312105;19;130466;-36
2022/01/03 09:38:38;;;;;;;18.65;2.67;;;;;;;21.18;57.70;98976.28;7310492;19;136367;-37
2022/01/03 09:41:05;;;;;;;13.77;2.20;;;;;;;21.20;57.73;98976.13;7312869;19;129685;-36
2022/01/03 09:43:39;;;;;;;20.35;2.80;;;;;;;21.18;57.95;98984.13;7311667;19;130756;-35
2022/01/03 09:46:05;;;;;;;15.52;2.03;;;;;;;21.14;57.36;98972.31;7312355;19;157836;-37
2022/01/03 09:48:31;;;;;;;24.50;3.13;;;;;;;21.15;57.66;98978.38;7311290;19;129160;-39
2022/01/03 09:50:59;;;;;;;21.70;3.03;;;;;;;21.21;59.47;98970.75;7311560;19;131090;-34
2022/01/03 09:53:26;;;;;;;13.82;2.08;;;;;;;21.38;58.11;98974.28;7310066;19;129809;-35
2022/01/03 09:55:51;;;;;;;19.60;3.00;;;;;;;21.47;57.20;98978.63;7308467;19;130237;-34
2022/01/03 09:58:17;;;;;;;19.33;2.83;;;;;;;21.38;57.76;98979.53;7310067;19;129874;-37
2022/01/03 10:00:43;;;;;;;14.85;2.55;;;;;;;21.32;57.05;98980.94;7308831;19;129792;-33
2022/01/03 10:03:08;;;;;;;15.60;2.40;;;;;;;21.29;56.65;98976.03;7311895;19;129622;-34
2022/01/03 10:05:34;;;;;;;13.50;2.25;;;;;;;21.31;58.16;98968.03;7312047;19;129102;-39
2022/01/03 10:07:59;;;;;;;15.55;2.38;;;;;;;21.30;58.36;98974.25;7309939;19;128815;-31
2022/01/03 10:10:27;;;;;;;15.68;2.50;;;;;;;21.29;59.11;98976.03;7308976;19;129218;-33
2022/01/03 10:12:53;;;;;;;15.40;2.50;;;;;;;21.31;58.23;98971.47;7311901;19;130197;-32
2022/01/03 10:15:18;;;;;;;14.15;2.33;;;;;;;21.33;58.51;98977.38;7309693;19;139038;-34
2022/01/03 10:17:45;;;;;;;21.65;3.58;;;;;;;21.31;59.30;98968.84;7309158;19;145747;-34
2022/01/03 10:20:12;;;;;;;23.38;3.60;;;;;;;21.31;59.87;98962.78;7309190;19;129738;-33
2022/01/03 10:22:39;;;;;;;23.60;3.13;;;;;;;21.31;58.57;98963.63;7311528;19;130603;-33
2022/01/03 10:25:24;;;;;;;11.55;1.73;;;;;;;21.27;60.17;98951.03;7311573;19;130705;-36
2022/01/03 10:27:52;;;;;;;24.55;3.45;;;;;;;21.23;58.95;98950.50;7310063;19;129485;-30
2022/01/03 10:30:31;;;;;;;9.10;2.08;;;;;;;21.24;59.91;98952.13;7308683;19;129415;-35
2022/01/03 10:32:57;;;;;;;9.00;1.45;;;;;;;21.22;59.55;98955.88;7311829;19;130307;-37
2022/01/03 10:35:23;;;;;;;22.43;2.73;;;;;;;21.19;58.95;98951.75;7311304;19;130328;-34
2022/01/03 10:37:49;;;;;;;20.95;3.30;;;;;;;21.11;59.08;98945.66;7310921;19;128636;-33
2022/01/03 10:40:29;;;;;;;14.15;2.15;;;;;;;21.08;59.18;98940.72;7309356;19;129054;-39
2022/01/03 10:43:13;;;;;;;26.98;4.00;;;;;;;21.02;59.55;98929.13;7310672;19;130142;-33
2022/01/03 10:45:39;;;;;;;13.40;1.95;;;;;;;20.98;58.48;98935.59;7309715;19;130412;-38
2022/01/03 10:48:28;;;;;;;15.68;2.10;;;;;;;20.93;58.69;98935.22;7310866;19;129146;-36
2022/01/03 10:50:55;;;;;;;16.80;2.65;;;;;;;20.87;59.04;98921.94;7311017;19;130267;-36
2022/01/03 10:53:31;;;;;;;15.05;2.60;;;;;;;20.86;59.56;98926.31;7311259;19;130270;-35
2022/01/03 10:55:56;;;;;;;9.05;1.42;;;;;;;20.85;58.65;98926.47;7310439;19;129755;-37
2022/01/03 10:58:32;;;;;;;11.60;1.67;;;;;;;20.86;60.15;98918.47;7309114;19;155094;-34
2022/01/03 11:00:58;;;;;;;13.63;1.98;;;;;;;20.85;59.02;98911.63;7311040;19;129056;-37
2022/01/03 11:03:31;;;;;;;10.97;1.63;;;;;;;20.84;58.96;98917.81;7311353;19;130144;-35
2022/01/03 11:06:14;;;;;;;13.57;2.00;;;;;;;20.76;59.37;98899.47;7309939;19;130380;-29
2022/01/03 11:11:48;;;;;;;14.02;2.05;;;;;;;20.85;60.05;98909.00;7310689;19;129063;-36
2022/01/03 11:14:32;;;;;;;26.80;3.63;;;;;;;20.88;61.41;98906.09;7308573;19;130195;-32
2022/01/03 11:16:57;;;;;;;23.80;3.67;;;;;;;20.85;59.66;98908.19;7309013;19;130907;-32
2022/01/03 11:19:39;;;;;;;25.05;3.33;;;;;;;20.87;59.19;98920.16;7308248;19;129925;-34
2022/01/03 11:22:05;;;;;;;12.02;1.75;;;;;;;20.85;58.61;98903.78;7317484;19;129362;-33
2022/01/03 11:24:30;;;;;;;18.77;2.60;;;;;;;20.81;59.15;98892.00;7315321;19;129390;-35
2022/01/03 11:26:56;;;;;;;13.10;1.85;;;;;;;20.82;59.57;98908.50;7316736;19;130380;-36
2022/01/03 11:29:22;;;;;;;20.85;2.58;;;;;;;20.83;59.32;98903.13;7314961;19;129220;-29
2022/01/03 11:31:51;;;;;;;13.32;2.20;;;;;;;20.81;59.10;98912.88;7314879;19;130384;-35
2022/01/03 11:34:23;;;;;;;13.95;2.25;;;;;;;20.80;59.79;98905.22;7316633;19;129506;-34
2022/01/03 11:36:49;;;;;;;14.13;2.28;;;;;;;20.81;59.76;98901.63;7316376;19;130442;-34